sensor_id;sensor_type;location;lat;lon;timestamp;P1;durP1;ratioP1;P2;durP2;ratioP2
76094;SDS011;64821;13.710;100.604;2023-11-18T00:00:07;13.45;;;3.03;;
76094;SDS011;64821;13.710;100.604;2023-11-18T00:01:12;9.85;;;2.58;;
76094;SDS011;64821;13.710;100.604;2023-11-18T00:02:16;10.63;;;2.80;;
76094;SDS011;64821;13.710;100.604;2023-11-18T00:03:20;10.57;;;2.73;;
76094;SDS011;64821;13.710;100.604;2023-11-18T00:04:24;10.35;;;2.60;;
76094;SDS011;64821;13.710;100.604;2023-11-18T00:05:28;8.93;;;2.30;;
76094;SDS011;64821;13.710;100.604;2023-11-18T00:06:39;9.00;;;2.50;;
76094;SDS011;64821;13.710;100.604;2023-11-18T00:07:43;9.48;;;2.70;;
76094;SDS011;64821;13.710;100.604;2023-11-18T00:08:47;11.80;;;2.80;;
76094;SDS011;64821;13.710;100.604;2023-11-18T00:09:50;8.82;;;2.50;;
76094;SDS011;64821;13.710;100.604;2023-11-18T00:11:03;9.98;;;2.97;;
76094;SDS011;64821;13.710;100.604;2023-11-18T00:12:08;9.45;;;3.15;;
76094;SDS011;64821;13.710;100.604;2023-11-18T00:13:12;8.35;;;2.55;;
76094;SDS011;64821;13.710;100.604;2023-11-18T00:14:16;9.37;;;2.43;;
76094;SDS011;64821;13.710;100.604;2023-11-18T00:15:20;9.30;;;2.70;;
76094;SDS011;64821;13.710;100.604;2023-11-18T00:16:24;9.18;;;2.90;;
76094;SDS011;64821;13.710;100.604;2023-11-18T00:17:28;12.77;;;2.63;;
76094;SDS011;64821;13.710;100.604;2023-11-18T00:18:32;8.05;;;2.70;;
76094;SDS011;64821;13.710;100.604;2023-11-18T00:19:36;10.47;;;2.73;;
76094;SDS011;64821;13.710;100.604;2023-11-18T00:20:39;8.80;;;2.70;;
76094;SDS011;64821;13.710;100.604;2023-11-18T00:21:43;8.30;;;2.60;;
76094;SDS011;64821;13.710;100.604;2023-11-18T00:22:47;11.38;;;3.00;;
76094;SDS011;64821;13.710;100.604;2023-11-18T00:23:53;7.60;;;2.50;;
76094;SDS011;64821;13.710;100.604;2023-11-18T00:24:57;9.17;;;2.50;;
76094;SDS011;64821;13.710;100.604;2023-11-18T00:26:01;10.38;;;2.50;;
76094;SDS011;64821;13.710;100.604;2023-11-18T00:27:05;10.25;;;2.70;;
76094;SDS011;64821;13.710;100.604;2023-11-18T00:28:11;11.93;;;2.65;;
76094;SDS011;64821;13.710;100.604;2023-11-18T00:29:15;7.07;;;2.50;;
76094;SDS011;64821;13.710;100.604;2023-11-18T00:30:18;14.10;;;2.97;;
76094;SDS011;64821;13.710;100.604;2023-11-18T00:31:22;8.43;;;2.40;;
76094;SDS011;64821;13.710;100.604;2023-11-18T00:32:26;8.25;;;2.70;;
76094;SDS011;64821;13.710;100.604;2023-11-18T00:33:31;8.88;;;2.90;;
76094;SDS011;64821;13.710;100.604;2023-11-18T00:34:34;7.35;;;2.40;;
76094;SDS011;64821;13.710;100.604;2023-11-18T00:35:38;9.77;;;2.70;;
76094;SDS011;64821;13.710;100.604;2023-11-18T00:36:42;11.95;;;2.70;;
76094;SDS011;64821;13.710;100.604;2023-11-18T00:37:46;9.95;;;2.60;;
76094;SDS011;64821;13.710;100.604;2023-11-18T00:38:50;9.88;;;2.83;;
76094;SDS011;64821;13.710;100.604;2023-11-18T00:39:54;9.52;;;2.42;;
76094;SDS011;64821;13.710;100.604;2023-11-18T00:40:57;11.17;;;2.80;;
76094;SDS011;64821;13.710;100.604;2023-11-18T00:42:01;9.57;;;2.50;;
76094;SDS011;64821;13.710;100.604;2023-11-18T00:43:07;7.50;;;2.38;;
76094;SDS011;64821;13.710;100.604;2023-11-18T00:44:11;7.30;;;2.63;;
76094;SDS011;64821;13.710;100.604;2023-11-18T00:45:15;9.77;;;2.70;;
76094;SDS011;64821;13.710;100.604;2023-11-18T00:46:36;8.40;;;2.20;;
76094;SDS011;64821;13.710;100.604;2023-11-18T00:47:40;6.97;;;2.30;;
76094;SDS011;64821;13.710;100.604;2023-11-18T00:48:44;7.00;;;2.20;;
76094;SDS011;64821;13.710;100.604;2023-11-18T00:49:47;8.68;;;2.70;;
76094;SDS011;64821;13.710;100.604;2023-11-18T00:50:51;10.98;;;2.80;;
76094;SDS011;64821;13.710;100.604;2023-11-18T00:51:55;8.73;;;3.00;;
76094;SDS011;64821;13.710;100.604;2023-11-18T00:53:56;7.63;;;2.40;;
76094;SDS011;64821;13.710;100.604;2023-11-18T00:55:02;9.80;;;2.75;;
76094;SDS011;64821;13.710;100.604;2023-11-18T00:56:44;7.63;;;2.80;;
76094;SDS011;64821;13.710;100.604;2023-11-18T00:58:03;8.68;;;2.50;;
76094;SDS011;64821;13.710;100.604;2023-11-18T01:02:42;7.88;;;2.55;;
76094;SDS011;64821;13.710;100.604;2023-11-18T01:03:49;9.25;;;2.45;;
76094;SDS011;64821;13.710;100.604;2023-11-18T01:04:56;9.05;;;2.30;;
76094;SDS011;64821;13.710;100.604;2023-11-18T01:06:17;9.00;;;2.37;;
76094;SDS011;64821;13.710;100.604;2023-11-18T01:07:21;9.90;;;2.60;;
76094;SDS011;64821;13.710;100.604;2023-11-18T01:08:31;7.53;;;2.60;;
76094;SDS011;64821;13.710;100.604;2023-11-18T01:09:46;8.48;;;2.70;;
76094;SDS011;64821;13.710;100.604;2023-11-18T01:11:17;8.90;;;2.72;;
76094;SDS011;64821;13.710;100.604;2023-11-18T01:12:21;8.87;;;2.40;;
76094;SDS011;64821;13.710;100.604;2023-11-18T01:13:24;9.45;;;2.38;;
76094;SDS011;64821;13.710;100.604;2023-11-18T01:14:28;7.55;;;2.25;;
76094;SDS011;64821;13.710;100.604;2023-11-18T01:15:34;9.65;;;2.67;;
76094;SDS011;64821;13.710;100.604;2023-11-18T01:16:38;8.38;;;2.47;;
76094;SDS011;64821;13.710;100.604;2023-11-18T01:18:04;9.20;;;2.40;;
76094;SDS011;64821;13.710;100.604;2023-11-18T01:19:08;9.18;;;2.78;;
76094;SDS011;64821;13.710;100.604;2023-11-18T01:20:21;7.88;;;2.33;;
76094;SDS011;64821;13.710;100.604;2023-11-18T01:21:35;10.80;;;2.88;;
76094;SDS011;64821;13.710;100.604;2023-11-18T01:22:43;8.95;;;2.60;;
76094;SDS011;64821;13.710;100.604;2023-11-18T01:24:03;12.20;;;2.70;;
76094;SDS011;64821;13.710;100.604;2023-11-18T01:25:23;13.30;;;3.25;;
76094;SDS011;64821;13.710;100.604;2023-11-18T01:26:27;10.07;;;2.65;;
76094;SDS011;64821;13.710;100.604;2023-11-18T01:27:31;7.85;;;2.83;;
76094;SDS011;64821;13.710;100.604;2023-11-18T01:28:35;7.97;;;2.40;;
76094;SDS011;64821;13.710;100.604;2023-11-18T01:29:39;9.73;;;2.50;;
76094;SDS011;64821;13.710;100.604;2023-11-18T01:30:45;9.63;;;2.17;;
76094;SDS011;64821;13.710;100.604;2023-11-18T01:31:49;9.95;;;2.55;;
76094;SDS011;64821;13.710;100.604;2023-11-18T01:32:54;7.55;;;2.42;;
76094;SDS011;64821;13.710;100.604;2023-11-18T01:33:57;10.05;;;2.45;;
76094;SDS011;64821;13.710;100.604;2023-11-18T01:35:01;9.90;;;2.70;;
76094;SDS011;64821;13.710;100.604;2023-11-18T01:36:06;7.65;;;2.40;;
76094;SDS011;64821;13.710;100.604;2023-11-18T01:37:11;7.50;;;2.30;;
76094;SDS011;64821;13.710;100.604;2023-11-18T01:38:14;10.50;;;2.55;;
76094;SDS011;64821;13.710;100.604;2023-11-18T01:39:18;8.75;;;2.78;;
76094;SDS011;64821;13.710;100.604;2023-11-18T01:40:23;8.77;;;2.60;;
76094;SDS011;64821;13.710;100.604;2023-11-18T01:41:30;9.88;;;2.90;;
76094;SDS011;64821;13.710;100.604;2023-11-18T01:42:41;7.70;;;2.30;;
76094;SDS011;64821;13.710;100.604;2023-11-18T01:43:46;8.88;;;2.53;;
76094;SDS011;64821;13.710;100.604;2023-11-18T01:44:50;8.85;;;2.58;;
76094;SDS011;64821;13.710;100.604;2023-11-18T01:46:29;8.20;;;2.60;;
76094;SDS011;64821;13.710;100.604;2023-11-18T01:49:04;9.63;;;2.70;;
76094;SDS011;64821;13.710;100.604;2023-11-18T01:50:14;10.10;;;2.65;;
76094;SDS011;64821;13.710;100.604;2023-11-18T01:51:02;7.53;;;2.47;;
76094;SDS011;64821;13.710;100.604;2023-11-18T01:52:08;6.97;;;2.42;;
76094;SDS011;64821;13.710;100.604;2023-11-18T01:56:23;9.55;;;2.72;;
76094;SDS011;64821;13.710;100.604;2023-11-18T01:57:38;9.27;;;2.38;;
76094;SDS011;64821;13.710;100.604;2023-11-18T01:58:42;7.72;;;2.58;;
76094;SDS011;64821;13.710;100.604;2023-11-18T01:59:46;9.87;;;2.90;;
76094;SDS011;64821;13.710;100.604;2023-11-18T02:00:50;9.20;;;2.58;;
76094;SDS011;64821;13.710;100.604;2023-11-18T02:01:56;7.28;;;2.42;;
76094;SDS011;64821;13.710;100.604;2023-11-18T02:03:01;10.18;;;2.53;;
76094;SDS011;64821;13.710;100.604;2023-11-18T02:04:05;8.30;;;2.50;;
76094;SDS011;64821;13.710;100.604;2023-11-18T02:05:09;10.03;;;2.60;;
76094;SDS011;64821;13.710;100.604;2023-11-18T02:06:13;10.00;;;3.00;;
76094;SDS011;64821;13.710;100.604;2023-11-18T02:07:17;9.90;;;2.75;;
76094;SDS011;64821;13.710;100.604;2023-11-18T02:08:22;9.00;;;2.60;;
76094;SDS011;64821;13.710;100.604;2023-11-18T02:09:26;8.63;;;2.60;;
76094;SDS011;64821;13.710;100.604;2023-11-18T02:10:30;8.70;;;2.37;;
76094;SDS011;64821;13.710;100.604;2023-11-18T02:11:36;10.93;;;2.70;;
76094;SDS011;64821;13.710;100.604;2023-11-18T02:12:44;8.30;;;2.42;;
76094;SDS011;64821;13.710;100.604;2023-11-18T02:14:10;9.18;;;2.50;;
76094;SDS011;64821;13.710;100.604;2023-11-18T02:15:29;8.10;;;2.50;;
76094;SDS011;64821;13.710;100.604;2023-11-18T02:16:34;8.13;;;2.40;;
76094;SDS011;64821;13.710;100.604;2023-11-18T02:19:00;7.75;;;2.42;;
76094;SDS011;64821;13.710;100.604;2023-11-18T02:20:06;11.45;;;2.75;;
76094;SDS011;64821;13.710;100.604;2023-11-18T02:21:13;7.13;;;2.42;;
76094;SDS011;64821;13.710;100.604;2023-11-18T02:22:18;8.37;;;2.40;;
76094;SDS011;64821;13.710;100.604;2023-11-18T02:24:47;10.90;;;2.95;;
76094;SDS011;64821;13.710;100.604;2023-11-18T02:25:52;11.18;;;2.60;;
76094;SDS011;64821;13.710;100.604;2023-11-18T02:26:57;10.32;;;2.63;;
76094;SDS011;64821;13.710;100.604;2023-11-18T02:28:00;11.10;;;2.73;;
76094;SDS011;64821;13.710;100.604;2023-11-18T02:29:17;11.68;;;2.80;;
76094;SDS011;64821;13.710;100.604;2023-11-18T02:30:21;8.70;;;2.40;;
76094;SDS011;64821;13.710;100.604;2023-11-18T02:31:27;9.90;;;2.40;;
76094;SDS011;64821;13.710;100.604;2023-11-18T02:33:17;7.97;;;2.58;;
76094;SDS011;64821;13.710;100.604;2023-11-18T02:35:09;9.13;;;2.47;;
76094;SDS011;64821;13.710;100.604;2023-11-18T02:39:42;9.00;;;2.40;;
76094;SDS011;64821;13.710;100.604;2023-11-18T02:40:47;6.95;;;2.38;;
76094;SDS011;64821;13.710;100.604;2023-11-18T02:45:36;12.25;;;3.05;;
76094;SDS011;64821;13.710;100.604;2023-11-18T02:46:41;9.55;;;2.97;;
76094;SDS011;64821;13.710;100.604;2023-11-18T02:47:45;10.60;;;2.58;;
76094;SDS011;64821;13.710;100.604;2023-11-18T02:48:50;8.07;;;2.30;;
76094;SDS011;64821;13.710;100.604;2023-11-18T02:49:54;10.10;;;2.70;;
76094;SDS011;64821;13.710;100.604;2023-11-18T02:50:58;10.85;;;3.22;;
76094;SDS011;64821;13.710;100.604;2023-11-18T02:52:02;9.30;;;2.35;;
76094;SDS011;64821;13.710;100.604;2023-11-18T02:53:06;7.25;;;2.40;;
76094;SDS011;64821;13.710;100.604;2023-11-18T02:54:10;7.93;;;2.30;;
76094;SDS011;64821;13.710;100.604;2023-11-18T02:55:14;8.15;;;2.65;;
76094;SDS011;64821;13.710;100.604;2023-11-18T02:56:18;9.00;;;2.75;;
76094;SDS011;64821;13.710;100.604;2023-11-18T02:57:21;8.93;;;2.50;;
76094;SDS011;64821;13.710;100.604;2023-11-18T02:58:27;9.05;;;2.40;;
76094;SDS011;64821;13.710;100.604;2023-11-18T02:59:31;8.27;;;2.40;;
76094;SDS011;64821;13.710;100.604;2023-11-18T03:00:34;9.88;;;2.92;;
76094;SDS011;64821;13.710;100.604;2023-11-18T03:01:38;10.48;;;2.65;;
76094;SDS011;64821;13.710;100.604;2023-11-18T03:02:42;10.40;;;3.20;;
76094;SDS011;64821;13.710;100.604;2023-11-18T03:03:46;8.13;;;2.50;;
76094;SDS011;64821;13.710;100.604;2023-11-18T03:04:50;8.70;;;3.03;;
76094;SDS011;64821;13.710;100.604;2023-11-18T03:05:54;8.80;;;2.83;;
76094;SDS011;64821;13.710;100.604;2023-11-18T03:06:58;8.23;;;2.80;;
76094;SDS011;64821;13.710;100.604;2023-11-18T03:08:01;11.27;;;2.78;;
76094;SDS011;64821;13.710;100.604;2023-11-18T03:09:05;7.90;;;3.03;;
76094;SDS011;64821;13.710;100.604;2023-11-18T03:10:09;8.43;;;2.57;;
76094;SDS011;64821;13.710;100.604;2023-11-18T03:11:13;7.85;;;2.85;;
76094;SDS011;64821;13.710;100.604;2023-11-18T03:12:17;9.98;;;2.35;;
76094;SDS011;64821;13.710;100.604;2023-11-18T03:13:21;10.95;;;2.88;;
76094;SDS011;64821;13.710;100.604;2023-11-18T03:14:26;9.48;;;2.92;;
76094;SDS011;64821;13.710;100.604;2023-11-18T03:15:30;11.37;;;3.33;;
76094;SDS011;64821;13.710;100.604;2023-11-18T03:16:34;13.07;;;2.80;;
76094;SDS011;64821;13.710;100.604;2023-11-18T03:17:39;9.27;;;2.78;;
76094;SDS011;64821;13.710;100.604;2023-11-18T03:18:43;10.05;;;2.95;;
76094;SDS011;64821;13.710;100.604;2023-11-18T03:19:47;11.00;;;2.72;;
76094;SDS011;64821;13.710;100.604;2023-11-18T03:20:50;7.93;;;2.80;;
76094;SDS011;64821;13.710;100.604;2023-11-18T03:21:54;10.05;;;3.08;;
76094;SDS011;64821;13.710;100.604;2023-11-18T03:22:59;10.30;;;3.28;;
76094;SDS011;64821;13.710;100.604;2023-11-18T03:24:03;6.85;;;2.63;;
76094;SDS011;64821;13.710;100.604;2023-11-18T03:25:08;8.55;;;2.70;;
76094;SDS011;64821;13.710;100.604;2023-11-18T03:26:11;7.40;;;2.90;;
76094;SDS011;64821;13.710;100.604;2023-11-18T03:27:15;9.88;;;3.00;;
76094;SDS011;64821;13.710;100.604;2023-11-18T03:28:19;8.82;;;2.80;;
76094;SDS011;64821;13.710;100.604;2023-11-18T03:29:23;9.05;;;3.00;;
76094;SDS011;64821;13.710;100.604;2023-11-18T03:30:28;7.78;;;2.70;;
76094;SDS011;64821;13.710;100.604;2023-11-18T03:31:32;10.20;;;2.90;;
76094;SDS011;64821;13.710;100.604;2023-11-18T03:32:36;8.32;;;2.67;;
76094;SDS011;64821;13.710;100.604;2023-11-18T03:33:41;10.07;;;3.03;;
76094;SDS011;64821;13.710;100.604;2023-11-18T03:34:45;9.82;;;2.88;;
76094;SDS011;64821;13.710;100.604;2023-11-18T03:35:49;8.55;;;3.00;;
76094;SDS011;64821;13.710;100.604;2023-11-18T03:36:53;8.80;;;3.10;;
76094;SDS011;64821;13.710;100.604;2023-11-18T03:37:57;11.65;;;2.78;;
76094;SDS011;64821;13.710;100.604;2023-11-18T03:39:01;7.72;;;2.80;;
76094;SDS011;64821;13.710;100.604;2023-11-18T03:40:05;10.65;;;2.75;;
76094;SDS011;64821;13.710;100.604;2023-11-18T03:41:09;8.20;;;2.90;;
76094;SDS011;64821;13.710;100.604;2023-11-18T03:42:13;9.07;;;2.93;;
76094;SDS011;64821;13.710;100.604;2023-11-18T03:43:17;8.32;;;2.80;;
76094;SDS011;64821;13.710;100.604;2023-11-18T03:44:21;11.02;;;3.45;;
76094;SDS011;64821;13.710;100.604;2023-11-18T03:45:25;9.93;;;2.70;;
76094;SDS011;64821;13.710;100.604;2023-11-18T03:46:30;7.97;;;3.00;;
76094;SDS011;64821;13.710;100.604;2023-11-18T03:47:34;8.93;;;3.30;;
76094;SDS011;64821;13.710;100.604;2023-11-18T03:48:38;9.13;;;2.90;;
76094;SDS011;64821;13.710;100.604;2023-11-18T03:49:42;8.63;;;2.80;;
76094;SDS011;64821;13.710;100.604;2023-11-18T03:50:45;9.98;;;2.63;;
76094;SDS011;64821;13.710;100.604;2023-11-18T03:51:49;9.05;;;3.17;;
76094;SDS011;64821;13.710;100.604;2023-11-18T03:52:53;8.03;;;2.63;;
76094;SDS011;64821;13.710;100.604;2023-11-18T03:53:57;8.70;;;3.08;;
76094;SDS011;64821;13.710;100.604;2023-11-18T03:55:02;10.65;;;2.97;;
76094;SDS011;64821;13.710;100.604;2023-11-18T03:56:07;7.53;;;3.00;;
76094;SDS011;64821;13.710;100.604;2023-11-18T03:57:11;8.98;;;3.10;;
76094;SDS011;64821;13.710;100.604;2023-11-18T03:58:15;8.03;;;3.10;;
76094;SDS011;64821;13.710;100.604;2023-11-18T03:59:19;7.97;;;2.90;;
76094;SDS011;64821;13.710;100.604;2023-11-18T04:00:23;9.27;;;2.92;;
76094;SDS011;64821;13.710;100.604;2023-11-18T04:01:26;9.95;;;3.30;;
76094;SDS011;64821;13.710;100.604;2023-11-18T04:02:32;9.15;;;3.15;;
76094;SDS011;64821;13.710;100.604;2023-11-18T04:03:36;8.63;;;3.27;;
76094;SDS011;64821;13.710;100.604;2023-11-18T04:04:40;9.85;;;3.33;;
76094;SDS011;64821;13.710;100.604;2023-11-18T04:05:44;8.18;;;3.08;;
76094;SDS011;64821;13.710;100.604;2023-11-18T04:06:48;10.48;;;3.30;;
76094;SDS011;64821;13.710;100.604;2023-11-18T04:07:51;9.93;;;2.72;;
76094;SDS011;64821;13.710;100.604;2023-11-18T04:08:55;9.93;;;3.37;;
76094;SDS011;64821;13.710;100.604;2023-11-18T04:09:59;11.77;;;3.40;;
76094;SDS011;64821;13.710;100.604;2023-11-18T04:11:03;7.93;;;2.95;;
76094;SDS011;64821;13.710;100.604;2023-11-18T04:12:07;8.90;;;3.13;;
76094;SDS011;64821;13.710;100.604;2023-11-18T04:13:11;7.40;;;2.67;;
76094;SDS011;64821;13.710;100.604;2023-11-18T04:14:15;10.13;;;2.93;;
76094;SDS011;64821;13.710;100.604;2023-11-18T04:15:19;10.30;;;2.88;;
76094;SDS011;64821;13.710;100.604;2023-11-18T04:16:23;9.70;;;2.97;;
76094;SDS011;64821;13.710;100.604;2023-11-18T04:17:27;9.40;;;3.10;;
76094;SDS011;64821;13.710;100.604;2023-11-18T04:18:32;8.40;;;2.83;;
76094;SDS011;64821;13.710;100.604;2023-11-18T04:19:36;8.13;;;2.77;;
76094;SDS011;64821;13.710;100.604;2023-11-18T04:20:40;9.20;;;2.63;;
76094;SDS011;64821;13.710;100.604;2023-11-18T04:21:44;8.10;;;2.90;;
76094;SDS011;64821;13.710;100.604;2023-11-18T04:22:49;9.38;;;2.72;;
76094;SDS011;64821;13.710;100.604;2023-11-18T04:23:53;8.60;;;2.90;;
76094;SDS011;64821;13.710;100.604;2023-11-18T04:24:57;8.33;;;2.80;;
76094;SDS011;64821;13.710;100.604;2023-11-18T04:26:01;8.23;;;2.70;;
76094;SDS011;64821;13.710;100.604;2023-11-18T04:27:05;8.48;;;3.08;;
76094;SDS011;64821;13.710;100.604;2023-11-18T04:28:09;7.50;;;2.92;;
76094;SDS011;64821;13.710;100.604;2023-11-18T04:29:13;9.85;;;3.00;;
76094;SDS011;64821;13.710;100.604;2023-11-18T04:30:17;10.80;;;3.33;;
76094;SDS011;64821;13.710;100.604;2023-11-18T04:31:20;10.13;;;2.90;;
76094;SDS011;64821;13.710;100.604;2023-11-18T04:32:24;8.20;;;3.22;;
76094;SDS011;64821;13.710;100.604;2023-11-18T04:33:28;13.38;;;3.05;;
76094;SDS011;64821;13.710;100.604;2023-11-18T04:34:34;9.35;;;3.10;;
76094;SDS011;64821;13.710;100.604;2023-11-18T04:35:38;8.43;;;2.70;;
76094;SDS011;64821;13.710;100.604;2023-11-18T04:36:42;7.78;;;3.00;;
76094;SDS011;64821;13.710;100.604;2023-11-18T04:37:46;9.00;;;3.30;;
76094;SDS011;64821;13.710;100.604;2023-11-18T04:38:50;7.63;;;2.90;;
76094;SDS011;64821;13.710;100.604;2023-11-18T04:39:53;9.55;;;3.20;;
76094;SDS011;64821;13.710;100.604;2023-11-18T04:40:57;7.70;;;2.70;;
76094;SDS011;64821;13.710;100.604;2023-11-18T04:42:01;9.55;;;3.20;;
76094;SDS011;64821;13.710;100.604;2023-11-18T04:43:05;8.27;;;2.90;;
76094;SDS011;64821;13.710;100.604;2023-11-18T04:44:09;9.07;;;3.08;;
76094;SDS011;64821;13.710;100.604;2023-11-18T04:45:13;9.13;;;2.88;;
76094;SDS011;64821;13.710;100.604;2023-11-18T04:46:17;7.10;;;2.70;;
76094;SDS011;64821;13.710;100.604;2023-11-18T04:47:20;9.45;;;3.10;;
76094;SDS011;64821;13.710;100.604;2023-11-18T04:48:24;9.45;;;2.97;;
76094;SDS011;64821;13.710;100.604;2023-11-18T04:49:28;8.95;;;3.13;;
76094;SDS011;64821;13.710;100.604;2023-11-18T04:50:34;7.45;;;2.72;;
76094;SDS011;64821;13.710;100.604;2023-11-18T04:51:38;7.90;;;2.80;;
76094;SDS011;64821;13.710;100.604;2023-11-18T04:52:42;7.15;;;2.60;;
76094;SDS011;64821;13.710;100.604;2023-11-18T04:53:45;8.48;;;2.58;;
76094;SDS011;64821;13.710;100.604;2023-11-18T04:54:49;7.35;;;2.80;;
76094;SDS011;64821;13.710;100.604;2023-11-18T04:55:53;9.35;;;2.65;;
76094;SDS011;64821;13.710;100.604;2023-11-18T04:56:57;8.10;;;2.83;;
76094;SDS011;64821;13.710;100.604;2023-11-18T04:58:01;9.00;;;2.97;;
76094;SDS011;64821;13.710;100.604;2023-11-18T04:59:05;8.65;;;2.75;;
76094;SDS011;64821;13.710;100.604;2023-11-18T05:00:09;8.15;;;2.60;;
76094;SDS011;64821;13.710;100.604;2023-11-18T05:01:13;9.32;;;2.55;;
76094;SDS011;64821;13.710;100.604;2023-11-18T05:02:17;9.53;;;2.83;;
76094;SDS011;64821;13.710;100.604;2023-11-18T05:03:21;12.43;;;2.83;;
76094;SDS011;64821;13.710;100.604;2023-11-18T05:04:25;9.00;;;2.60;;
76094;SDS011;64821;13.710;100.604;2023-11-18T05:05:29;10.55;;;2.80;;
76094;SDS011;64821;13.710;100.604;2023-11-18T05:06:34;9.20;;;2.90;;
76094;SDS011;64821;13.710;100.604;2023-11-18T05:07:39;8.60;;;2.77;;
76094;SDS011;64821;13.710;100.604;2023-11-18T05:08:43;8.20;;;2.70;;
76094;SDS011;64821;13.710;100.604;2023-11-18T05:09:47;9.40;;;2.88;;
76094;SDS011;64821;13.710;100.604;2023-11-18T05:10:51;9.18;;;2.80;;
76094;SDS011;64821;13.710;100.604;2023-11-18T05:11:54;8.10;;;2.78;;
76094;SDS011;64821;13.710;100.604;2023-11-18T05:13:00;9.87;;;2.97;;
76094;SDS011;64821;13.710;100.604;2023-11-18T05:14:04;7.47;;;3.10;;
76094;SDS011;64821;13.710;100.604;2023-11-18T05:15:08;8.27;;;2.70;;
76094;SDS011;64821;13.710;100.604;2023-11-18T05:16:12;8.95;;;3.08;;
76094;SDS011;64821;13.710;100.604;2023-11-18T05:17:16;9.32;;;2.40;;
76094;SDS011;64821;13.710;100.604;2023-11-18T05:18:20;7.13;;;2.60;;
76094;SDS011;64821;13.710;100.604;2023-11-18T05:19:24;10.02;;;3.08;;
76094;SDS011;64821;13.710;100.604;2023-11-18T05:20:28;9.85;;;3.00;;
76094;SDS011;64821;13.710;100.604;2023-11-18T05:21:31;7.90;;;2.58;;
76094;SDS011;64821;13.710;100.604;2023-11-18T05:22:37;8.07;;;2.80;;
76094;SDS011;64821;13.710;100.604;2023-11-18T05:23:41;8.17;;;2.80;;
76094;SDS011;64821;13.710;100.604;2023-11-18T05:24:45;9.02;;;3.00;;
76094;SDS011;64821;13.710;100.604;2023-11-18T05:25:48;10.32;;;3.20;;
76094;SDS011;64821;13.710;100.604;2023-11-18T05:26:53;10.63;;;3.10;;
76094;SDS011;64821;13.710;100.604;2023-11-18T05:27:56;8.82;;;3.20;;
76094;SDS011;64821;13.710;100.604;2023-11-18T05:29:00;8.00;;;2.90;;
76094;SDS011;64821;13.710;100.604;2023-11-18T05:30:04;7.00;;;2.50;;
76094;SDS011;64821;13.710;100.604;2023-11-18T05:31:09;9.18;;;3.17;;
76094;SDS011;64821;13.710;100.604;2023-11-18T05:32:13;8.68;;;3.00;;
76094;SDS011;64821;13.710;100.604;2023-11-18T05:33:17;10.68;;;3.25;;
76094;SDS011;64821;13.710;100.604;2023-11-18T05:34:21;9.43;;;3.10;;
76094;SDS011;64821;13.710;100.604;2023-11-18T05:35:24;7.88;;;2.90;;
76094;SDS011;64821;13.710;100.604;2023-11-18T05:36:28;8.90;;;3.10;;
76094;SDS011;64821;13.710;100.604;2023-11-18T05:37:34;7.90;;;3.28;;
76094;SDS011;64821;13.710;100.604;2023-11-18T05:38:38;8.30;;;3.00;;
76094;SDS011;64821;13.710;100.604;2023-11-18T05:39:42;10.60;;;2.50;;
76094;SDS011;64821;13.710;100.604;2023-11-18T05:40:46;8.20;;;3.00;;
76094;SDS011;64821;13.710;100.604;2023-11-18T05:41:50;8.88;;;2.85;;
76094;SDS011;64821;13.710;100.604;2023-11-18T05:42:53;9.07;;;3.05;;
76094;SDS011;64821;13.710;100.604;2023-11-18T05:43:57;8.07;;;3.30;;
76094;SDS011;64821;13.710;100.604;2023-11-18T05:45:01;9.17;;;3.07;;
76094;SDS011;64821;13.710;100.604;2023-11-18T05:46:06;8.80;;;2.83;;
76094;SDS011;64821;13.710;100.604;2023-11-18T05:47:10;8.52;;;3.00;;
76094;SDS011;64821;13.710;100.604;2023-11-18T05:48:14;8.57;;;3.15;;
76094;SDS011;64821;13.710;100.604;2023-11-18T05:49:18;7.78;;;3.15;;
76094;SDS011;64821;13.710;100.604;2023-11-18T05:50:22;6.90;;;3.03;;
76094;SDS011;64821;13.710;100.604;2023-11-18T05:51:26;7.45;;;3.00;;
76094;SDS011;64821;13.710;100.604;2023-11-18T05:52:30;8.85;;;3.13;;
76094;SDS011;64821;13.710;100.604;2023-11-18T05:53:36;9.65;;;3.60;;
76094;SDS011;64821;13.710;100.604;2023-11-18T05:54:42;9.60;;;3.85;;
76094;SDS011;64821;13.710;100.604;2023-11-18T05:55:47;7.67;;;3.37;;
76094;SDS011;64821;13.710;100.604;2023-11-18T05:56:51;8.55;;;3.40;;
76094;SDS011;64821;13.710;100.604;2023-11-18T05:57:56;10.30;;;3.25;;
76094;SDS011;64821;13.710;100.604;2023-11-18T05:58:59;7.65;;;3.05;;
76094;SDS011;64821;13.710;100.604;2023-11-18T06:00:03;9.25;;;3.30;;
76094;SDS011;64821;13.710;100.604;2023-11-18T06:01:08;9.97;;;3.20;;
76094;SDS011;64821;13.710;100.604;2023-11-18T06:02:12;10.45;;;3.40;;
76094;SDS011;64821;13.710;100.604;2023-11-18T06:03:16;11.57;;;3.75;;
76094;SDS011;64821;13.710;100.604;2023-11-18T06:04:19;10.60;;;3.63;;
76094;SDS011;64821;13.710;100.604;2023-11-18T06:05:23;11.20;;;3.85;;
76094;SDS011;64821;13.710;100.604;2023-11-18T06:06:27;11.03;;;3.60;;
76094;SDS011;64821;13.710;100.604;2023-11-18T06:07:31;7.90;;;2.97;;
76094;SDS011;64821;13.710;100.604;2023-11-18T06:08:36;7.35;;;3.13;;
76094;SDS011;64821;13.710;100.604;2023-11-18T06:09:41;8.25;;;3.22;;
76094;SDS011;64821;13.710;100.604;2023-11-18T06:10:46;10.85;;;3.33;;
76094;SDS011;64821;13.710;100.604;2023-11-18T06:11:50;11.37;;;3.73;;
76094;SDS011;64821;13.710;100.604;2023-11-18T06:12:54;8.07;;;3.20;;
76094;SDS011;64821;13.710;100.604;2023-11-18T06:13:57;8.38;;;3.15;;
76094;SDS011;64821;13.710;100.604;2023-11-18T06:15:01;10.90;;;3.63;;
76094;SDS011;64821;13.710;100.604;2023-11-18T06:16:06;9.23;;;3.40;;
76094;SDS011;64821;13.710;100.604;2023-11-18T06:17:10;9.77;;;3.73;;
76094;SDS011;64821;13.710;100.604;2023-11-18T06:18:14;9.05;;;3.40;;
76094;SDS011;64821;13.710;100.604;2023-11-18T06:19:18;8.52;;;3.10;;
76094;SDS011;64821;13.710;100.604;2023-11-18T06:20:21;7.20;;;3.40;;
76094;SDS011;64821;13.710;100.604;2023-11-18T06:21:25;8.25;;;3.40;;
76094;SDS011;64821;13.710;100.604;2023-11-18T06:22:30;10.67;;;3.40;;
76094;SDS011;64821;13.710;100.604;2023-11-18T06:23:33;10.02;;;3.45;;
76094;SDS011;64821;13.710;100.604;2023-11-18T06:24:39;7.57;;;3.20;;
76094;SDS011;64821;13.710;100.604;2023-11-18T06:25:43;8.15;;;3.25;;
76094;SDS011;64821;13.710;100.604;2023-11-18T06:26:47;7.22;;;3.20;;
76094;SDS011;64821;13.710;100.604;2023-11-18T06:27:51;9.37;;;3.70;;
76094;SDS011;64821;13.710;100.604;2023-11-18T06:28:54;7.40;;;3.22;;
76094;SDS011;64821;13.710;100.604;2023-11-18T06:29:59;7.75;;;3.17;;
76094;SDS011;64821;13.710;100.604;2023-11-18T06:31:03;10.65;;;4.00;;
76094;SDS011;64821;13.710;100.604;2023-11-18T06:32:07;8.55;;;3.40;;
76094;SDS011;64821;13.710;100.604;2023-11-18T06:33:11;11.80;;;3.70;;
76094;SDS011;64821;13.710;100.604;2023-11-18T06:34:15;10.02;;;3.55;;
76094;SDS011;64821;13.710;100.604;2023-11-18T06:35:19;9.20;;;3.65;;
76094;SDS011;64821;13.710;100.604;2023-11-18T06:36:23;8.13;;;3.38;;
76094;SDS011;64821;13.710;100.604;2023-11-18T06:37:32;10.27;;;3.78;;
76094;SDS011;64821;13.710;100.604;2023-11-18T06:38:37;10.47;;;4.00;;
76094;SDS011;64821;13.710;100.604;2023-11-18T06:39:41;10.98;;;4.25;;